Time;durP1;ratioP1;P1;durP2;ratioP2;P2;SDS_P1;SDS_P2;PMS_P1;PMS_P2;Temp;Humidity;BMP_temperature;BMP_pressure;BME280_temperature;BME280_humidity;BME280_pressure;Samples;Min_cycle;Max_cycle;Signal;HPM_P1;HPM_P2
2023/07/19 00:03:32;;;;;;;2.97;1.85;;;;;;;;;;10491870;28;20078;-60
2023/07/19 00:08:33;;;;;;;5.60;1.98;;;;;;;;;;10479413;28;20037;-60
2023/07/19 00:13:33;;;;;;;3.30;2.00;;;;;;;;;;10478777;28;20036;-60
2023/07/19 00:18:34;;;;;;;1.98;1.52;;;;;;;;;;10492008;28;20020;-60
2023/07/19 00:23:35;;;;;;;2.33;1.75;;;;;;;;;;10492207;28;20376;-60
2023/07/19 00:28:35;;;;;;;1.73;1.58;;;;;;;;;;10491555;28;20031;-62
2023/07/19 00:33:36;;;;;;;3.65;2.10;;;;;;;;;;10478830;28;20024;-63
2023/07/19 00:38:37;;;;;;;3.13;1.90;;;;;;;;;;10488635;28;20563;-62
2023/07/19 00:43:38;;;;;;;3.25;1.70;;;;;;;;;;10478437;28;20020;-62
2023/07/19 00:48:39;;;;;;;3.83;2.15;;;;;;;;;;10488517;28;20032;-61
2023/07/19 00:53:40;;;;;;;2.38;1.80;;;;;;;;;;10476617;28;20025;-61
2023/07/19 00:58:41;;;;;;;3.15;2.63;;;;;;;;;;10487109;28;20564;-62
2023/07/19 01:03:42;;;;;;;2.35;1.60;;;;;;;;;;10464870;28;20021;-60
2023/07/19 01:08:43;;;;;;;3.38;1.52;;;;;;;;;;10477901;28;20025;-60
2023/07/19 01:13:51;;;;;;;2.80;1.80;;;;;;;;;;10476411;28;20159;-60
2023/07/19 01:18:52;;;;;;;5.03;1.83;;;;;;;;;;10466499;28;20037;-60
2023/07/19 01:23:52;;;;;;;2.92;1.55;;;;;;;;;;10488607;28;20048;-59
2023/07/19 01:28:57;;;;;;;6.00;1.83;;;;;;;;;;10483402;28;20368;-59
2023/07/19 01:33:57;;;;;;;2.92;1.85;;;;;;;;;;10491353;28;20043;-59
2023/07/19 01:38:58;;;;;;;2.00;1.45;;;;;;;;;;10489224;28;20044;-59
2023/07/19 01:43:59;;;;;;;3.42;1.70;;;;;;;;;;10487184;28;20090;-59
2023/07/19 01:48:59;;;;;;;1.65;1.55;;;;;;;;;;10489596;28;20025;-60
2023/07/19 01:54:00;;;;;;;1.80;1.50;;;;;;;;;;10487512;28;20035;-59
2023/07/19 01:59:00;;;;;;;3.25;1.75;;;;;;;;;;10488839;28;20028;-59
2023/07/19 02:04:02;;;;;;;2.72;1.85;;;;;;;;;;10475389;28;20475;-62
2023/07/19 02:09:02;;;;;;;1.55;1.45;;;;;;;;;;10489006;28;20024;-61
2023/07/19 02:14:03;;;;;;;2.55;1.67;;;;;;;;;;10466111;28;20028;-61
2023/07/19 02:19:06;;;;;;;3.65;1.85;;;;;;;;;;10469480;28;20480;-61
2023/07/19 02:24:07;;;;;;;1.85;1.67;;;;;;;;;;10478556;28;20040;-61
2023/07/19 02:29:08;;;;;;;1.88;1.52;;;;;;;;;;10486056;28;20025;-64
2023/07/19 02:34:08;;;;;;;1.85;1.75;;;;;;;;;;10485184;28;20028;-64
2023/07/19 02:39:09;;;;;;;2.88;1.75;;;;;;;;;;10496600;28;20024;-61
2023/07/19 02:44:09;;;;;;;2.20;1.67;;;;;;;;;;10482288;28;20028;-61
2023/07/19 02:49:11;;;;;;;4.63;1.70;;;;;;;;;;10483403;28;20034;-62
2023/07/19 02:54:12;;;;;;;2.20;1.60;;;;;;;;;;10495762;28;20063;-60
2023/07/19 02:59:13;;;;;;;1.58;1.40;;;;;;;;;;10493916;28;20123;-61
2023/07/19 03:04:14;;;;;;;5.25;1.55;;;;;;;;;;10474634;28;20120;-60
2023/07/19 03:09:15;;;;;;;2.38;1.52;;;;;;;;;;10485277;28;20483;-60
2023/07/19 03:14:15;;;;;;;1.70;1.60;;;;;;;;;;10482284;28;20035;-61
2023/07/19 03:19:16;;;;;;;2.45;1.67;;;;;;;;;;10492382;28;20028;-63
2023/07/19 03:24:16;;;;;;;1.95;1.70;;;;;;;;;;10493163;28;20040;-62
2023/07/19 03:29:17;;;;;;;2.50;1.50;;;;;;;;;;10493058;28;20388;-61
2023/07/19 03:34:18;;;;;;;1.60;1.48;;;;;;;;;;10491554;28;20376;-60
2023/07/19 03:39:18;;;;;;;1.75;1.48;;;;;;;;;;10492748;28;20371;-62
2023/07/19 03:44:19;;;;;;;3.35;1.40;;;;;;;;;;10490830;28;20149;-61
2023/07/19 03:49:20;;;;;;;2.15;1.60;;;;;;;;;;10492679;28;20069;-61
2023/07/19 03:54:20;;;;;;;2.45;1.60;;;;;;;;;;10491444;28;20047;-62
2023/07/19 03:59:21;;;;;;;1.70;1.60;;;;;;;;;;10491964;28;20059;-61
2023/07/19 04:04:21;;;;;;;2.03;1.50;;;;;;;;;;10465470;28;20037;-61
2023/07/19 04:09:22;;;;;;;1.52;1.42;;;;;;;;;;10479874;28;20135;-65
2023/07/19 04:14:23;;;;;;;1.50;1.08;;;;;;;;;;10474232;28;20043;-61
2023/07/19 04:19:23;;;;;;;1.60;1.42;;;;;;;;;;10491419;28;20036;-62
2023/07/19 04:24:24;;;;;;;3.72;2.22;;;;;;;;;;10491103;28;20408;-60
2023/07/19 04:29:24;;;;;;;4.40;1.40;;;;;;;;;;10491655;28;20244;-59
2023/07/19 04:34:25;;;;;;;1.38;1.27;;;;;;;;;;10477386;28;20024;-59
2023/07/19 04:39:26;;;;;;;2.17;1.40;;;;;;;;;;10479367;28;20047;-60
2023/07/19 04:44:26;;;;;;;1.67;1.50;;;;;;;;;;10488948;28;20028;-59
2023/07/19 04:49:27;;;;;;;2.17;1.80;;;;;;;;;;10487900;28;20537;-59
2023/07/19 04:54:27;;;;;;;3.00;1.55;;;;;;;;;;10487237;28;20059;-60
2023/07/19 04:59:28;;;;;;;3.92;1.73;;;;;;;;;;10489237;28;20028;-64
2023/07/19 05:04:29;;;;;;;2.10;1.50;;;;;;;;;;10488260;28;20534;-60
2023/07/19 05:09:29;;;;;;;3.58;1.50;;;;;;;;;;10488557;28;20035;-60
2023/07/19 05:14:30;;;;;;;1.40;1.30;;;;;;;;;;10489604;28;20041;-59
2023/07/19 05:19:30;;;;;;;3.80;1.75;;;;;;;;;;10475260;28;20075;-59
2023/07/19 05:24:31;;;;;;;3.45;1.60;;;;;;;;;;10471848;28;20397;-59
2023/07/19 05:29:32;;;;;;;2.65;1.60;;;;;;;;;;10487037;28;20387;-60
2023/07/19 05:34:33;;;;;;;1.88;1.67;;;;;;;;;;10488561;28;20146;-59
2023/07/19 05:39:34;;;;;;;3.90;1.58;;;;;;;;;;10475797;28;20039;-59
2023/07/19 05:44:34;;;;;;;1.83;1.70;;;;;;;;;;10485104;28;20025;-59
2023/07/19 05:49:35;;;;;;;1.83;1.55;;;;;;;;;;10484170;28;20086;-59
2023/07/19 05:54:36;;;;;;;1.55;1.45;;;;;;;;;;10485753;28;20075;-58
2023/07/19 05:59:36;;;;;;;2.65;1.48;;;;;;;;;;10476901;28;20483;-64
2023/07/19 06:04:38;;;;;;;3.67;1.48;;;;;;;;;;10487417;28;20040;-65
2023/07/19 06:09:39;;;;;;;3.72;1.40;;;;;;;;;;10510058;28;20045;-59
2023/07/19 06:14:40;;;;;;;4.57;1.50;;;;;;;;;;10484630;28;20111;-59
2023/07/19 06:19:40;;;;;;;2.63;1.30;;;;;;;;;;10481890;28;20036;-59
2023/07/19 06:24:41;;;;;;;2.55;1.67;;;;;;;;;;10490865;28;20044;-59
2023/07/19 06:29:41;;;;;;;14.13;3.53;;;;;;;;;;10482460;28;20475;-59
2023/07/19 06:34:43;;;;;;;12.00;4.00;;;;;;;;;;10484949;28;20077;-60
2023/07/19 06:39:43;;;;;;;10.32;4.05;;;;;;;;;;10486201;28;20020;-62
2023/07/19 06:44:44;;;;;;;8.07;3.60;;;;;;;;;;10486647;28;20028;-61
2023/07/19 06:49:45;;;;;;;6.63;3.45;;;;;;;;;;10487218;28;20020;-64
2023/07/19 06:54:45;;;;;;;8.52;3.55;;;;;;;;;;10487071;28;20029;-59
2023/07/19 06:59:49;;;;;;;10.98;4.22;;;;;;;;;;10487213;28;20078;-64
2023/07/19 07:04:51;;;;;;;7.28;3.35;;;;;;;;;;10469391;28;20106;-64
2023/07/19 07:09:53;;;;;;;9.98;3.65;;;;;;;;;;10464345;28;20040;-60
2023/07/19 07:14:54;;;;;;;9.45;3.88;;;;;;;;;;10486497;28;20279;-60
2023/07/19 07:19:54;;;;;;;9.85;4.00;;;;;;;;;;10486831;28;20156;-62
2023/07/19 07:24:55;;;;;;;6.75;4.22;;;;;;;;;;10481120;28;20376;-61
2023/07/19 07:29:58;;;;;;;6.32;4.07;;;;;;;;;;10493707;28;20025;-60
2023/07/19 07:34:58;;;;;;;9.63;4.07;;;;;;;;;;10506023;28;20025;-59
2023/07/19 07:39:59;;;;;;;10.05;4.05;;;;;;;;;;10492771;28;20044;-61
2023/07/19 07:45:00;;;;;;;16.85;4.38;;;;;;;;;;10493116;28;20027;-64
2023/07/19 07:50:03;;;;;;;7.00;4.35;;;;;;;;;;10492284;28;20371;-62
2023/07/19 07:55:05;;;;;;;8.38;4.60;;;;;;;;;;10493095;28;20044;-59
2023/07/19 08:00:06;;;;;;;12.18;4.70;;;;;;;;;;10500470;28;20077;-59
2023/07/19 08:05:08;;;;;;;11.13;5.35;;;;;;;;;;10496575;28;20020;-61
2023/07/19 08:10:09;;;;;;;12.07;5.00;;;;;;;;;;10479026;28;20016;-64
2023/07/19 08:15:09;;;;;;;10.18;5.07;;;;;;;;;;10488242;28;20025;-60
2023/07/19 08:20:11;;;;;;;10.23;4.75;;;;;;;;;;10472701;28;20032;-60
2023/07/19 08:25:11;;;;;;;12.73;5.05;;;;;;;;;;10491177;28;20045;-64
2023/07/19 08:30:15;;;;;;;6.32;5.15;;;;;;;;;;10490258;28;20423;-60
2023/07/19 08:35:17;;;;;;;10.50;5.45;;;;;;;;;;10490796;28;20033;-59
2023/07/19 08:40:18;;;;;;;10.48;4.88;;;;;;;;;;10490541;28;20476;-59
2023/07/19 08:45:23;;;;;;;13.32;5.38;;;;;;;;;;10492048;28;20029;-60
2023/07/19 08:50:25;;;;;;;10.77;5.78;;;;;;;;;;10479296;28;20029;-60
2023/07/19 08:55:25;;;;;;;9.80;5.30;;;;;;;;;;10489371;28;20494;-61
2023/07/19 09:00:28;;;;;;;10.65;5.40;;;;;;;;;;10489575;28;20036;-60
2023/07/19 09:05:29;;;;;;;18.58;5.80;;;;;;;;;;10490003;28;20024;-62
2023/07/19 09:10:30;;;;;;;10.18;5.45;;;;;;;;;;10486851;28;20033;-61
2023/07/19 09:15:37;;;;;;;9.68;5.30;;;;;;;;;;10489927;28;20116;-59
2023/07/19 09:20:39;;;;;;;11.20;5.88;;;;;;;;;;10485649;28;20025;-61
2023/07/19 09:25:56;;;;;;;10.27;6.13;;;;;;;;;;10489054;28;20157;-60
2023/07/19 09:31:03;;;;;;;10.13;5.03;;;;;;;;;;10488823;28;20433;-60
2023/07/19 09:36:04;;;;;;;9.30;5.97;;;;;;;;;;10495608;28;20473;-60
2023/07/19 09:41:04;;;;;;;8.75;5.70;;;;;;;;;;10494121;28;20077;-63
2023/07/19 09:46:05;;;;;;;10.13;5.70;;;;;;;;;;10486526;28;20024;-59
2023/07/19 09:51:06;;;;;;;6.15;4.93;;;;;;;;;;10486887;28;20464;-60
2023/07/19 09:56:10;;;;;;;12.77;6.38;;;;;;;;;;10486471;28;20081;-65
2023/07/19 10:01:11;;;;;;;11.25;6.38;;;;;;;;;;10488566;28;20037;-60
2023/07/19 10:06:14;;;;;;;8.60;5.82;;;;;;;;;;10485717;28;20025;-59
2023/07/19 10:11:23;;;;;;;11.05;5.80;;;;;;;;;;10483053;28;20043;-60
2023/07/19 10:16:24;;;;;;;13.13;6.13;;;;;;;;;;10485157;28;20404;-60
2023/07/19 10:21:26;;;;;;;13.77;6.00;;;;;;;;;;10482896;28;20021;-59
2023/07/19 10:26:32;;;;;;;16.23;6.15;;;;;;;;;;10488552;28;20071;-60
2023/07/19 10:31:34;;;;;;;10.05;5.38;;;;;;;;;;10487315;28;20025;-60
2023/07/19 10:36:46;;;;;;;9.02;5.70;;;;;;;;;;10486264;28;20108;-59
2023/07/19 10:41:50;;;;;;;7.97;5.20;;;;;;;;;;10465430;28;20029;-60
2023/07/19 10:46:50;;;;;;;8.95;5.85;;;;;;;;;;10474865;28;20478;-59
2023/07/19 10:51:53;;;;;;;13.48;5.97;;;;;;;;;;10487289;28;20035;-59
2023/07/19 10:56:57;;;;;;;7.72;5.53;;;;;;;;;;10489671;28;20033;-59
2023/07/19 11:01:57;;;;;;;8.93;5.75;;;;;;;;;;10494002;28;20217;-64
2023/07/19 11:07:00;;;;;;;11.20;6.13;;;;;;;;;;10494545;28;20024;-60
2023/07/19 11:12:00;;;;;;;15.98;6.85;;;;;;;;;;10494062;28;20020;-60
2023/07/19 11:17:01;;;;;;;13.95;6.05;;;;;;;;;;10493803;28;20024;-60
2023/07/19 11:22:03;;;;;;;12.40;6.35;;;;;;;;;;10493611;28;20533;-59
2023/07/19 11:27:06;;;;;;;14.95;6.38;;;;;;;;;;10493586;28;20039;-59
2023/07/19 11:32:20;;;;;;;10.25;7.00;;;;;;;;;;10493396;28;20016;-59
2023/07/19 11:37:25;;;;;;;33.92;7.65;;;;;;;;;;10492610;28;20282;-59
2023/07/19 11:42:47;;;;;;;21.17;6.85;;;;;;;;;;10493148;28;20024;-61
2023/07/19 11:47:50;;;;;;;21.35;6.75;;;;;;;;;;10502148;28;20024;-59
2023/07/19 11:52:57;;;;;;;16.13;6.75;;;;;;;;;;10491370;28;20501;-63
2023/07/19 11:58:04;;;;;;;14.60;6.73;;;;;;;;;;10492095;28;20027;-65
2023/07/19 12:03:04;;;;;;;19.90;7.13;;;;;;;;;;10491846;28;20442;-59
2023/07/19 12:08:06;;;;;;;10.95;6.57;;;;;;;;;;10491677;28;20079;-60
2023/07/19 12:13:07;;;;;;;11.07;5.75;;;;;;;;;;10491713;28;20029;-60
2023/07/19 12:18:08;;;;;;;15.38;5.97;;;;;;;;;;10492664;28;20119;-60
2023/07/19 12:23:08;;;;;;;13.02;6.25;;;;;;;;;;10480793;28;20048;-59
2023/07/19 12:28:09;;;;;;;13.32;6.45;;;;;;;;;;10504481;28;20028;-59
2023/07/19 12:33:10;;;;;;;16.52;6.78;;;;;;;;;;10490503;28;20036;-60
2023/07/19 12:38:10;;;;;;;12.30;6.25;;;;;;;;;;10480075;28;20024;-64
2023/07/19 12:43:11;;;;;;;17.38;6.65;;;;;;;;;;10475351;28;20032;-61
2023/07/19 12:48:12;;;;;;;10.65;5.80;;;;;;;;;;10489991;28;20031;-61
2023/07/19 12:53:12;;;;;;;9.40;5.45;;;;;;;;;;10489805;28;20032;-60
2023/07/19 12:58:13;;;;;;;10.13;6.10;;;;;;;;;;10487387;28;20040;-61
2023/07/19 13:03:13;;;;;;;17.35;6.30;;;;;;;;;;10482099;28;20044;-59
2023/07/19 13:08:14;;;;;;;12.77;5.50;;;;;;;;;;10480448;28;20035;-59
2023/07/19 13:13:15;;;;;;;11.40;5.80;;;;;;;;;;10479263;28;20032;-59
2023/07/19 13:18:16;;;;;;;12.65;6.25;;;;;;;;;;10487718;28;20039;-60
2023/07/19 13:23:16;;;;;;;12.73;5.95;;;;;;;;;;10488041;28;20040;-59
2023/07/19 13:28:17;;;;;;;8.90;5.75;;;;;;;;;;10484218;28;20032;-60
2023/07/19 13:33:18;;;;;;;12.40;5.50;;;;;;;;;;10488553;28;20040;-60
2023/07/19 13:38:19;;;;;;;11.00;5.57;;;;;;;;;;10487960;28;20024;-60
2023/07/19 13:43:20;;;;;;;11.65;5.00;;;;;;;;;;10488823;28;20041;-60
2023/07/19 13:48:20;;;;;;;19.00;6.20;;;;;;;;;;10487194;28;20111;-62
2023/07/19 13:53:21;;;;;;;8.23;5.45;;;;;;;;;;10487233;28;20024;-60
2023/07/19 13:58:21;;;;;;;10.63;5.60;;;;;;;;;;10486377;28;20082;-60
2023/07/19 14:03:22;;;;;;;7.10;5.05;;;;;;;;;;10488171;28;20044;-60
2023/07/19 14:08:23;;;;;;;9.38;5.43;;;;;;;;;;10488857;28;20085;-64
2023/07/19 14:13:23;;;;;;;6.85;5.13;;;;;;;;;;10484379;28;20052;-64
2023/07/19 14:18:24;;;;;;;9.48;4.82;;;;;;;;;;10478420;28;20056;-65
2023/07/19 14:23:25;;;;;;;8.30;4.75;;;;;;;;;;10484383;28;20452;-65
2023/07/19 14:28:25;;;;;;;6.57;4.30;;;;;;;;;;10487445;28;20032;-65
2023/07/19 14:33:27;;;;;;;9.10;4.60;;;;;;;;;;10483295;28;20029;-64
2023/07/19 14:38:29;;;;;;;9.10;4.97;;;;;;;;;;10485140;28;20028;-65
2023/07/19 14:43:30;;;;;;;11.05;5.05;;;;;;;;;;10495556;28;20041;-65
2023/07/19 14:48:32;;;;;;;12.82;4.55;;;;;;;;;;10492366;28;20025;-60
2023/07/19 14:53:32;;;;;;;20.27;4.90;;;;;;;;;;10492346;28;20123;-60
2023/07/19 14:58:34;;;;;;;5.82;4.18;;;;;;;;;;10490339;28;20106;-60
2023/07/19 15:03:35;;;;;;;10.63;3.80;;;;;;;;;;10495178;28;20029;-60
2023/07/19 15:08:36;;;;;;;8.15;4.03;;;;;;;;;;10494421;28;20029;-59
2023/07/19 15:13:38;;;;;;;4.70;3.50;;;;;;;;;;10479620;28;20028;-60
2023/07/19 15:18:38;;;;;;;7.35;3.95;;;;;;;;;;10494988;28;20145;-59
2023/07/19 15:23:39;;;;;;;11.55;4.35;;;;;;;;;;10493794;28;20037;-60
2023/07/19 15:28:40;;;;;;;6.63;4.38;;;;;;;;;;10493964;28;20025;-59
2023/07/19 15:33:40;;;;;;;5.20;3.75;;;;;;;;;;10493222;28;20044;-59
2023/07/19 15:38:46;;;;;;;8.88;3.85;;;;;;;;;;10492880;28;20021;-60
2023/07/19 15:43:46;;;;;;;9.23;4.13;;;;;;;;;;10492798;28;20263;-59
2023/07/19 15:48:47;;;;;;;5.93;3.65;;;;;;;;;;10491168;28;20267;-59
2023/07/19 15:53:47;;;;;;;6.13;3.72;;;;;;;;;;10493903;28;20056;-59
2023/07/19 15:58:48;;;;;;;5.47;4.07;;;;;;;;;;10482685;28;20098;-59
2023/07/19 16:03:49;;;;;;;7.32;3.92;;;;;;;;;;10480333;28;20047;-59
2023/07/19 16:08:49;;;;;;;7.25;3.50;;;;;;;;;;10487050;28;20148;-59
2023/07/19 16:13:51;;;;;;;5.47;3.88;;;;;;;;;;10485502;28;20016;-59
2023/07/19 16:18:52;;;;;;;5.28;3.75;;;;;;;;;;10486174;28;20077;-60
2023/07/19 16:23:53;;;;;;;6.45;4.00;;;;;;;;;;10492262;28;20511;-61
2023/07/19 16:28:53;;;;;;;5.63;3.88;;;;;;;;;;10492326;28;20016;-59
2023/07/19 16:33:54;;;;;;;4.15;3.50;;;;;;;;;;10491906;28;20522;-60
2023/07/19 16:38:55;;;;;;;5.45;3.40;;;;;;;;;;10491240;28;20476;-59
2023/07/19 16:43:56;;;;;;;3.63;3.20;;;;;;;;;;10491220;28;20040;-60
2023/07/19 16:48:58;;;;;;;5.55;3.95;;;;;;;;;;10490143;28;20024;-59
2023/07/19 16:53:59;;;;;;;4.20;3.47;;;;;;;;;;10489338;28;20032;-60
2023/07/19 16:58:59;;;;;;;7.85;3.88;;;;;;;;;;10478650;28;20459;-60
2023/07/19 17:04:00;;;;;;;5.45;3.70;;;;;;;;;;10477640;28;20552;-60
2023/07/19 17:09:00;;;;;;;6.57;3.83;;;;;;;;;;10489323;28;20334;-59
2023/07/19 17:14:01;;;;;;;10.63;3.70;;;;;;;;;;10489567;28;20021;-60
2023/07/19 17:19:02;;;;;;;5.00;3.40;;;;;;;;;;10489647;28;20028;-60
2023/07/19 17:24:02;;;;;;;9.57;4.05;;;;;;;;;;10489169;28;20040;-62
2023/07/19 17:29:03;;;;;;;9.20;3.97;;;;;;;;;;10478213;28;20031;-60
2023/07/19 17:34:04;;;;;;;6.03;3.83;;;;;;;;;;10474360;28;20032;-60
2023/07/19 17:39:04;;;;;;;4.32;3.83;;;;;;;;;;10476783;28;20025;-62
2023/07/19 17:44:05;;;;;;;9.48;4.25;;;;;;;;;;10485848;28;20361;-63
2023/07/19 17:49:06;;;;;;;12.90;4.00;;;;;;;;;;10487684;28;20020;-59
2023/07/19 17:54:07;;;;;;;7.10;4.07;;;;;;;;;;10490490;28;20032;-60
2023/07/19 17:59:08;;;;;;;8.68;3.92;;;;;;;;;;10489238;28;20016;-59
2023/07/19 18:04:09;;;;;;;9.20;4.40;;;;;;;;;;10488195;28;20364;-59
2023/07/19 18:09:10;;;;;;;9.55;4.03;;;;;;;;;;10488916;28;20060;-59
2023/07/19 18:14:12;;;;;;;7.38;4.22;;;;;;;;;;10550044;22;20077;-54
2023/07/19 18:19:13;;;;;;;5.85;4.10;;;;;;;;;;10582831;28;20034;-57
2023/07/19 18:24:15;;;;;;;7.40;4.43;;;;;;;;;;10581668;28;20051;-60
2023/07/19 18:29:19;;;;;;;13.80;5.28;;;;;;;;;;10581455;28;20066;-59
2023/07/19 18:34:21;;;;;;;20.73;5.05;;;;;;;;;;10581500;28;20038;-59
2023/07/19 18:39:22;;;;;;;19.70;4.82;;;;;;;;;;10581536;28;20436;-58
2023/07/19 18:44:26;;;;;;;10.98;5.13;;;;;;;;;;10581278;28;20015;-54
2023/07/19 18:49:28;;;;;;;17.13;5.28;;;;;;;;;;10581183;28;20031;-55
2023/07/19 18:54:29;;;;;;;13.55;5.45;;;;;;;;;;10580340;28;20034;-55
2023/07/19 18:59:29;;;;;;;10.73;4.85;;;;;;;;;;10565848;28;20614;-59
2023/07/19 19:04:30;;;;;;;10.85;5.20;;;;;;;;;;10568758;28;20092;-56
2023/07/19 19:09:31;;;;;;;10.73;4.60;;;;;;;;;;10568706;28;20032;-58
2023/07/19 19:14:31;;;;;;;12.52;4.93;;;;;;;;;;10573091;28;20454;-57
2023/07/19 19:19:32;;;;;;;11.23;5.43;;;;;;;;;;10563687;28;20039;-57
2023/07/19 19:24:33;;;;;;;18.05;4.85;;;;;;;;;;10578305;28;20028;-55
2023/07/19 19:29:34;;;;;;;17.00;5.20;;;;;;;;;;10589937;27;20027;-57
2023/07/19 19:34:36;;;;;;;17.10;5.25;;;;;;;;;;10575691;27;20479;-56
2023/07/19 19:39:36;;;;;;;16.23;5.20;;;;;;;;;;10571962;27;20046;-57
2023/07/19 19:44:37;;;;;;;22.40;5.65;;;;;;;;;;10578838;27;20031;-60
2023/07/19 19:49:39;;;;;;;18.17;4.65;;;;;;;;;;10577291;28;20012;-60
2023/07/19 19:54:39;;;;;;;16.85;5.53;;;;;;;;;;10577022;28;20396;-59
2023/07/19 19:59:40;;;;;;;16.30;5.70;;;;;;;;;;10566401;27;20019;-57
2023/07/19 20:05:05;;;;;;;16.27;5.75;;;;;;;;;;10572042;27;20024;-57
2023/07/19 20:10:07;;;;;;;13.32;5.13;;;;;;;;;;10547921;28;20039;-58
2023/07/19 20:15:09;;;;;;;18.05;5.25;;;;;;;;;;10543496;28;20048;-58
2023/07/19 20:20:09;;;;;;;17.27;5.82;;;;;;;;;;10543037;28;20035;-58
2023/07/19 20:25:10;;;;;;;14.95;4.80;;;;;;;;;;10570028;27;20037;-58
2023/07/19 20:30:11;;;;;;;15.32;5.28;;;;;;;;;;10582024;27;20390;-58
2023/07/19 20:35:11;;;;;;;14.30;5.15;;;;;;;;;;10576559;27;20229;-58
2023/07/19 20:40:12;;;;;;;11.20;5.28;;;;;;;;;;10583561;27;20036;-57
2023/07/19 20:45:13;;;;;;;11.73;5.28;;;;;;;;;;10579842;27;20036;-58
2023/07/19 20:50:14;;;;;;;13.60;5.40;;;;;;;;;;10582498;27;20090;-57
2023/07/19 20:55:15;;;;;;;11.95;5.22;;;;;;;;;;10574751;28;20122;-59
2023/07/19 21:00:17;;;;;;;15.10;5.40;;;;;;;;;;10575589;28;20110;-58
2023/07/19 21:05:18;;;;;;;14.18;5.50;;;;;;;;;;10569051;28;20027;-57
2023/07/19 21:10:19;;;;;;;18.48;4.85;;;;;;;;;;10563404;27;20402;-59
2023/07/19 21:15:20;;;;;;;13.55;4.60;;;;;;;;;;10545665;27;20112;-60
2023/07/19 21:20:22;;;;;;;11.15;4.13;;;;;;;;;;10563176;28;20115;-59
2023/07/19 21:41:44;;;;;;;8.52;3.83;;;;;;;;;;10435626;27;20618;-58
2023/07/19 21:46:45;;;;;;;7.60;3.78;;;;;;;;;;10392503;28;20049;-59
2023/07/19 21:51:46;;;;;;;10.13;3.40;;;;;;;;;;10399835;28;20038;-61
2023/07/19 21:56:46;;;;;;;5.22;3.03;;;;;;;;;;10400636;28;20075;-58
2023/07/19 22:01:47;;;;;;;5.70;3.17;;;;;;;;;;10397524;28;20026;-59
2023/07/19 22:06:48;;;;;;;6.55;3.17;;;;;;;;;;10392416;28;21192;-58
2023/07/19 22:11:49;;;;;;;4.90;2.75;;;;;;;;;;10376250;28;20095;-59
2023/07/19 22:16:50;;;;;;;10.60;3.63;;;;;;;;;;10389597;28;20068;-59
2023/07/19 22:21:50;;;;;;;7.50;3.00;;;;;;;;;;10389538;28;20480;-58
2023/07/19 22:26:51;;;;;;;5.65;2.80;;;;;;;;;;10396543;28;20472;-61
2023/07/19 22:31:52;;;;;;;5.25;2.90;;;;;;;;;;10398675;28;20040;-59
2023/07/19 22:36:52;;;;;;;7.88;3.08;;;;;;;;;;10390652;28;20046;-59
2023/07/19 22:41:53;;;;;;;4.22;2.22;;;;;;;;;;10371530;28;20026;-57
2023/07/19 22:46:54;;;;;;;13.27;3.10;;;;;;;;;;10361471;28;20026;-57
2023/07/19 22:51:54;;;;;;;4.95;2.42;;;;;;;;;;10367287;28;20030;-57
2023/07/19 22:56:55;;;;;;;6.50;2.95;;;;;;;;;;10358921;28;20033;-57
2023/07/19 23:01:56;;;;;;;3.67;2.70;;;;;;;;;;10371266;28;20030;-62
2023/07/19 23:06:56;;;;;;;3.88;2.22;;;;;;;;;;10371008;28;20389;-57
2023/07/19 23:11:57;;;;;;;3.35;2.30;;;;;;;;;;10370285;28;20037;-58
2023/07/19 23:16:58;;;;;;;3.83;2.35;;;;;;;;;;10357545;28;20034;-57
2023/07/19 23:21:58;;;;;;;5.78;2.80;;;;;;;;;;10365842;28;20026;-57
2023/07/19 23:26:59;;;;;;;3.83;2.40;;;;;;;;;;10364763;28;20092;-57
2023/07/19 23:32:00;;;;;;;3.67;2.50;;;;;;;;;;10359576;28;20026;-56
2023/07/19 23:37:01;;;;;;;3.80;2.38;;;;;;;;;;10359735;28;20358;-54
2023/07/19 23:42:01;;;;;;;4.97;2.40;;;;;;;;;;10367519;28;20018;-57
2023/07/19 23:47:02;;;;;;;3.35;2.28;;;;;;;;;;10369158;28;20046;-58
2023/07/19 23:52:03;;;;;;;3.83;2.03;;;;;;;;;;10355228;28;20029;-57
2023/07/19 23:57:05;;;;;;;3.05;2.03;;;;;;;;;;10369133;28;20124;-57
